Time;durP1;ratioP1;P1;durP2;ratioP2;P2;SDS_P1;SDS_P2;PMS_P1;PMS_P2;Temp;Humidity;BMP_temperature;BMP_pressure;BME280_temperature;BME280_humidity;BME280_pressure;Samples;Min_cycle;Max_cycle;Signal;HPM_P1;HPM_P2
2021/09/04 00:02:00;;;;;;;21.42;10.63;;;;;;;;;;5064670;28;20016;-88
2021/09/04 00:04:25;;;;;;;21.88;10.05;;;;;;;;;;5061217;28;20132;-88
2021/09/04 00:06:50;;;;;;;23.27;9.82;;;;;;;;;;5071760;28;20046;-88
2021/09/04 00:09:16;;;;;;;24.45;10.55;;;;;;;;;;5071843;28;20521;-88
2021/09/04 00:11:41;;;;;;;25.55;10.23;;;;;;;;;;5071499;28;20044;-88
2021/09/04 00:14:06;;;;;;;19.27;9.35;;;;;;;;;;5057690;28;20111;-88
2021/09/04 00:16:31;;;;;;;23.08;11.05;;;;;;;;;;5068108;28;20045;-88
2021/09/04 00:18:56;;;;;;;26.40;11.25;;;;;;;;;;5068203;28;20467;-88
2021/09/04 00:21:22;;;;;;;24.45;9.65;;;;;;;;;;5072711;28;20590;-88
2021/09/04 00:23:47;;;;;;;23.08;10.20;;;;;;;;;;5071453;28;20016;-88
2021/09/04 00:26:12;;;;;;;24.23;10.35;;;;;;;;;;5065060;28;20016;-88
2021/09/04 00:28:37;;;;;;;21.05;10.38;;;;;;;;;;5064392;28;20091;-88
2021/09/04 00:31:02;;;;;;;21.20;10.73;;;;;;;;;;5051887;28;20017;-88
2021/09/04 00:33:28;;;;;;;23.23;10.20;;;;;;;;;;5062045;28;20025;-88
2021/09/04 00:35:53;;;;;;;21.08;9.57;;;;;;;;;;5071265;28;20035;-87
2021/09/04 00:38:18;;;;;;;20.52;9.57;;;;;;;;;;5072729;28;20013;-88
2021/09/04 00:40:45;;;;;;;25.02;10.30;;;;;;;;;;5062664;28;20024;-88
2021/09/04 00:43:10;;;;;;;26.30;10.02;;;;;;;;;;5053664;28;20028;-88
2021/09/04 00:45:35;;;;;;;23.88;9.90;;;;;;;;;;5067278;28;20107;-88
2021/09/04 00:48:02;;;;;;;20.30;10.57;;;;;;;;;;5071336;28;20032;-87
2021/09/04 00:50:28;;;;;;;23.15;10.07;;;;;;;;;;5072631;28;20035;-88
2021/09/04 00:52:54;;;;;;;21.35;10.02;;;;;;;;;;5067956;28;20021;-88
2021/09/04 00:55:20;;;;;;;20.55;10.80;;;;;;;;;;5069584;28;20392;-88
2021/09/04 00:57:46;;;;;;;23.98;10.70;;;;;;;;;;5071304;28;20078;-88
2021/09/04 01:00:11;;;;;;;22.85;10.48;;;;;;;;;;5072147;28;20048;-87
2021/09/04 01:02:36;;;;;;;23.60;11.45;;;;;;;;;;5071142;28;20024;-88
2021/09/04 01:05:02;;;;;;;20.08;9.30;;;;;;;;;;5067267;28;20100;-88
2021/09/04 01:07:27;;;;;;;20.50;10.27;;;;;;;;;;5057696;28;20036;-88
2021/09/04 01:09:53;;;;;;;23.02;9.95;;;;;;;;;;5071159;28;20446;-88
2021/09/04 01:12:18;;;;;;;17.85;9.10;;;;;;;;;;5072117;28;20020;-88
2021/09/04 01:14:43;;;;;;;23.58;10.23;;;;;;;;;;5071054;28;20025;-88
2021/09/04 01:17:08;;;;;;;21.98;9.98;;;;;;;;;;5070908;28;20017;-88
2021/09/04 01:19:33;;;;;;;19.35;9.70;;;;;;;;;;5072616;28;20104;-88
2021/09/04 01:21:59;;;;;;;23.30;10.30;;;;;;;;;;5072322;28;20028;-88
2021/09/04 01:24:24;;;;;;;22.90;10.15;;;;;;;;;;5072323;28;20085;-88
2021/09/04 01:26:49;;;;;;;22.85;10.57;;;;;;;;;;5070949;28;20027;-88
2021/09/04 01:29:15;;;;;;;21.92;10.45;;;;;;;;;;5074423;28;20025;-88
2021/09/04 01:31:40;;;;;;;19.40;9.88;;;;;;;;;;5070674;28;20833;-88
2021/09/04 01:34:06;;;;;;;19.73;10.07;;;;;;;;;;5074679;28;20031;-88
2021/09/04 01:36:32;;;;;;;32.40;12.18;;;;;;;;;;5074597;28;20021;-89
2021/09/04 01:38:58;;;;;;;26.58;11.40;;;;;;;;;;5074630;28;20427;-88
2021/09/04 01:41:23;;;;;;;24.00;10.77;;;;;;;;;;5074544;28;20017;-88
2021/09/04 01:43:49;;;;;;;22.38;10.23;;;;;;;;;;5074613;28;20009;-87
2021/09/04 01:46:14;;;;;;;26.17;10.50;;;;;;;;;;5060507;28;20095;-87
2021/09/04 01:48:39;;;;;;;21.73;11.18;;;;;;;;;;5054034;28;20384;-88
2021/09/04 01:51:05;;;;;;;20.40;10.23;;;;;;;;;;5067111;28;20663;-89
2021/09/04 01:53:30;;;;;;;24.65;11.75;;;;;;;;;;5074342;28;20020;-88
2021/09/04 01:55:55;;;;;;;28.30;11.93;;;;;;;;;;5074437;28;20024;-88
2021/09/04 01:58:20;;;;;;;20.65;11.55;;;;;;;;;;5073857;28;20020;-87
2021/09/04 02:00:46;;;;;;;21.30;10.43;;;;;;;;;;5067980;28;20170;-88
2021/09/04 02:03:11;;;;;;;27.48;12.15;;;;;;;;;;5058940;28;20037;-88
2021/09/04 02:05:36;;;;;;;30.92;12.55;;;;;;;;;;5074636;28;20017;-88
2021/09/04 02:08:01;;;;;;;24.20;10.73;;;;;;;;;;5074227;28;20032;-88
2021/09/04 02:10:27;;;;;;;20.65;11.18;;;;;;;;;;5073669;28;20021;-88
2021/09/04 02:12:52;;;;;;;24.48;11.27;;;;;;;;;;5074069;28;20024;-88
2021/09/04 02:15:18;;;;;;;21.15;10.70;;;;;;;;;;5073874;28;20036;-88
2021/09/04 02:17:43;;;;;;;24.85;11.30;;;;;;;;;;5061020;28;20035;-88
2021/09/04 02:20:08;;;;;;;22.92;10.40;;;;;;;;;;5066648;28;20051;-88
2021/09/04 02:22:34;;;;;;;26.25;12.23;;;;;;;;;;5074772;28;20519;-88
2021/09/04 02:24:59;;;;;;;27.33;11.30;;;;;;;;;;5073603;28;20023;-88
2021/09/04 02:27:24;;;;;;;27.05;12.57;;;;;;;;;;5073808;28;20414;-88
2021/09/04 02:29:49;;;;;;;28.35;12.18;;;;;;;;;;5073577;28;20029;-88
2021/09/04 02:32:15;;;;;;;26.40;12.32;;;;;;;;;;5059220;28;20025;-88
2021/09/04 02:34:40;;;;;;;28.77;11.88;;;;;;;;;;5073442;28;20027;-88
2021/09/04 02:37:05;;;;;;;23.52;10.80;;;;;;;;;;5073632;28;20021;-88
2021/09/04 02:39:30;;;;;;;27.00;12.82;;;;;;;;;;5074007;28;20044;-87
2021/09/04 02:41:55;;;;;;;22.77;10.70;;;;;;;;;;5059846;28;20023;-87
2021/09/04 02:44:21;;;;;;;29.15;12.70;;;;;;;;;;5070857;28;20023;-88
2021/09/04 02:46:46;;;;;;;31.20;13.60;;;;;;;;;;5053477;28;20040;-88
2021/09/04 02:49:11;;;;;;;34.33;13.82;;;;;;;;;;5054369;28;20036;-88
2021/09/04 02:51:37;;;;;;;24.58;12.05;;;;;;;;;;5054587;28;20481;-88
2021/09/04 02:54:02;;;;;;;26.90;12.52;;;;;;;;;;5053224;28;20017;-88
2021/09/04 02:56:28;;;;;;;26.58;12.35;;;;;;;;;;5053130;28;20047;-88
2021/09/04 02:58:53;;;;;;;29.73;13.52;;;;;;;;;;5052963;28;20719;-87
2021/09/04 03:01:18;;;;;;;30.95;13.85;;;;;;;;;;5053245;28;20040;-88
2021/09/04 03:03:43;;;;;;;28.77;12.98;;;;;;;;;;5052739;28;20096;-88
2021/09/04 03:06:08;;;;;;;27.70;13.25;;;;;;;;;;5053044;28;20017;-88
2021/09/04 03:08:35;;;;;;;27.02;12.75;;;;;;;;;;5054067;28;20029;-88
2021/09/04 03:11:01;;;;;;;32.00;13.38;;;;;;;;;;5053453;28;20025;-88
2021/09/04 03:13:26;;;;;;;29.88;12.20;;;;;;;;;;5054038;28;20032;-87
2021/09/04 03:15:51;;;;;;;25.27;12.27;;;;;;;;;;5053631;28;20025;-88
2021/09/04 03:18:17;;;;;;;28.33;12.98;;;;;;;;;;5052771;28;20025;-88
2021/09/04 03:20:42;;;;;;;31.52;13.98;;;;;;;;;;5053540;28;20017;-88
2021/09/04 03:23:07;;;;;;;32.90;13.82;;;;;;;;;;5052908;28;20070;-88
2021/09/04 03:25:32;;;;;;;29.02;12.88;;;;;;;;;;5052453;28;20071;-88
2021/09/04 03:27:58;;;;;;;27.58;13.63;;;;;;;;;;5052593;28;20031;-88
2021/09/04 03:30:23;;;;;;;28.20;14.18;;;;;;;;;;5052470;28;20033;-88
2021/09/04 03:32:48;;;;;;;27.50;13.25;;;;;;;;;;5053731;28;20031;-88
2021/09/04 03:35:14;;;;;;;33.83;13.73;;;;;;;;;;5051766;28;20035;-88
2021/09/04 03:37:39;;;;;;;32.28;14.90;;;;;;;;;;5053140;28;20063;-88
2021/09/04 03:40:04;;;;;;;31.27;14.32;;;;;;;;;;5052106;28;20021;-89
2021/09/04 03:42:30;;;;;;;41.20;14.45;;;;;;;;;;5053597;28;20029;-88
2021/09/04 03:44:55;;;;;;;27.67;13.52;;;;;;;;;;5051836;28;20044;-88
2021/09/04 03:47:20;;;;;;;31.48;14.75;;;;;;;;;;5085892;28;20029;-88
2021/09/04 03:49:45;;;;;;;32.60;15.23;;;;;;;;;;5052103;28;20037;-88
2021/09/04 03:52:11;;;;;;;33.53;14.43;;;;;;;;;;5052182;28;20377;-88
2021/09/04 03:54:36;;;;;;;26.25;12.63;;;;;;;;;;5053366;28;20028;-88
2021/09/04 03:57:01;;;;;;;36.03;13.80;;;;;;;;;;5053140;28;20013;-88
2021/09/04 03:59:26;;;;;;;32.30;14.27;;;;;;;;;;5051601;28;20024;-88
2021/09/04 04:01:51;;;;;;;30.27;13.82;;;;;;;;;;5051940;28;20017;-88
2021/09/04 04:04:17;;;;;;;32.55;14.55;;;;;;;;;;5051963;28;20391;-88
2021/09/04 04:06:42;;;;;;;31.73;14.65;;;;;;;;;;5051628;28;20425;-88
2021/09/04 04:09:07;;;;;;;36.65;15.07;;;;;;;;;;5051882;28;20027;-88
2021/09/04 04:11:32;;;;;;;35.35;14.73;;;;;;;;;;5052884;28;20090;-88
2021/09/04 04:13:58;;;;;;;31.38;14.27;;;;;;;;;;5051669;28;20420;-88
2021/09/04 04:16:23;;;;;;;34.10;14.60;;;;;;;;;;5051781;28;20024;-87
2021/09/04 04:18:48;;;;;;;31.05;13.77;;;;;;;;;;5051977;28;20051;-88
2021/09/04 04:21:13;;;;;;;39.00;15.65;;;;;;;;;;5052999;28;20016;-88
2021/09/04 04:23:39;;;;;;;29.85;14.00;;;;;;;;;;5051287;28;20017;-87
2021/09/04 04:26:04;;;;;;;31.52;13.95;;;;;;;;;;5053080;28;20453;-88
2021/09/04 04:28:30;;;;;;;31.55;14.32;;;;;;;;;;5051816;28;20013;-88
2021/09/04 04:30:55;;;;;;;36.15;15.90;;;;;;;;;;5052558;28;20071;-88
2021/09/04 04:33:20;;;;;;;35.30;15.68;;;;;;;;;;5051748;28;20013;-88
2021/09/04 04:35:45;;;;;;;37.78;14.57;;;;;;;;;;5051346;28;20021;-88
2021/09/04 04:38:11;;;;;;;37.53;15.90;;;;;;;;;;5051556;28;20029;-88
2021/09/04 04:40:36;;;;;;;38.75;16.17;;;;;;;;;;5051519;28;20043;-88
2021/09/04 04:43:01;;;;;;;43.83;17.13;;;;;;;;;;5051351;28;20013;-88
2021/09/04 04:45:26;;;;;;;38.38;16.63;;;;;;;;;;5052959;28;20017;-88
2021/09/04 04:47:52;;;;;;;41.88;17.92;;;;;;;;;;5051293;28;20040;-88
2021/09/04 04:50:17;;;;;;;35.50;14.52;;;;;;;;;;5085180;28;20027;-88
2021/09/04 04:52:42;;;;;;;43.75;16.90;;;;;;;;;;5051226;28;20384;-88
2021/09/04 04:55:08;;;;;;;35.65;15.73;;;;;;;;;;5051225;28;20013;-88
2021/09/04 04:57:34;;;;;;;48.55;19.70;;;;;;;;;;5051496;28;20476;-88
2021/09/04 04:59:59;;;;;;;38.78;16.60;;;;;;;;;;5083905;28;20060;-88
2021/09/04 05:02:24;;;;;;;48.63;18.88;;;;;;;;;;5052307;28;20510;-88
2021/09/04 05:04:50;;;;;;;49.20;18.92;;;;;;;;;;5054635;28;20024;-88
2021/09/04 05:07:15;;;;;;;50.25;19.67;;;;;;;;;;5055229;28;20048;-88
2021/09/04 05:09:40;;;;;;;37.25;15.50;;;;;;;;;;5056445;28;20017;-88
2021/09/04 05:12:05;;;;;;;47.97;18.52;;;;;;;;;;5054907;28;20021;-88
2021/09/04 05:14:31;;;;;;;50.72;20.67;;;;;;;;;;5054926;28;20679;-88
2021/09/04 05:16:56;;;;;;;38.20;17.23;;;;;;;;;;5054791;28;20167;-88
2021/09/04 05:19:21;;;;;;;54.83;21.60;;;;;;;;;;5055131;28;20017;-88
2021/09/04 05:21:46;;;;;;;47.35;20.80;;;;;;;;;;5055194;28;20021;-88
2021/09/04 05:24:11;;;;;;;49.60;19.45;;;;;;;;;;5054366;28;20021;-88
2021/09/04 05:26:37;;;;;;;49.22;19.95;;;;;;;;;;5054938;28;20021;-88
2021/09/04 05:29:02;;;;;;;54.25;20.48;;;;;;;;;;5054713;28;20393;-88
2021/09/04 05:31:28;;;;;;;45.83;18.23;;;;;;;;;;5054740;28;20029;-87
2021/09/04 05:33:53;;;;;;;56.15;20.13;;;;;;;;;;5055673;28;20719;-88
2021/09/04 05:36:18;;;;;;;55.35;22.50;;;;;;;;;;5054633;28;20053;-88
2021/09/04 05:38:44;;;;;;;51.03;19.23;;;;;;;;;;5054406;28;20024;-88
2021/09/04 05:41:09;;;;;;;51.42;19.30;;;;;;;;;;5054408;28;20457;-88
2021/09/04 05:43:34;;;;;;;59.88;21.95;;;;;;;;;;5054471;28;20017;-88
2021/09/04 05:46:00;;;;;;;44.15;18.02;;;;;;;;;;5054631;28;20440;-88
2021/09/04 05:48:25;;;;;;;53.53;20.27;;;;;;;;;;5054305;28;20121;-88
2021/09/04 05:50:50;;;;;;;55.38;18.50;;;;;;;;;;5055483;28;20717;-87
2021/09/04 05:53:15;;;;;;;50.65;18.50;;;;;;;;;;5055276;28;20021;-88
2021/09/04 05:55:40;;;;;;;49.92;18.80;;;;;;;;;;5055293;28;20033;-88
2021/09/04 05:58:06;;;;;;;57.42;20.67;;;;;;;;;;5054205;28;20100;-88
2021/09/04 06:00:31;;;;;;;57.00;19.73;;;;;;;;;;5054236;28;20031;-88
2021/09/04 06:02:56;;;;;;;58.72;20.05;;;;;;;;;;5054257;28;20533;-88
2021/09/04 06:05:21;;;;;;;47.88;19.65;;;;;;;;;;5053883;28;20039;-87
2021/09/04 06:07:47;;;;;;;57.25;20.02;;;;;;;;;;5054094;28;20094;-88
2021/09/04 06:10:12;;;;;;;60.72;21.83;;;;;;;;;;5054169;28;20116;-88
2021/09/04 06:12:37;;;;;;;53.38;20.05;;;;;;;;;;5053973;28;20491;-88
2021/09/04 06:15:03;;;;;;;58.42;21.55;;;;;;;;;;5052781;28;20021;-88
2021/09/04 06:17:28;;;;;;;55.88;21.48;;;;;;;;;;5053591;28;20032;-88
2021/09/04 06:19:53;;;;;;;55.78;21.05;;;;;;;;;;5054496;28;20025;-88
2021/09/04 06:22:18;;;;;;;58.65;21.02;;;;;;;;;;5053724;28;20012;-88
2021/09/04 06:24:43;;;;;;;57.50;20.90;;;;;;;;;;5054845;28;20013;-88
2021/09/04 06:27:09;;;;;;;53.88;19.13;;;;;;;;;;5053552;28;20066;-88
2021/09/04 06:29:34;;;;;;;57.00;21.48;;;;;;;;;;5054898;28;20039;-89
2021/09/04 06:31:59;;;;;;;49.95;19.83;;;;;;;;;;5053762;28;20060;-88
2021/09/04 06:34:24;;;;;;;67.80;23.20;;;;;;;;;;5054789;28;20487;-88
2021/09/04 06:36:50;;;;;;;61.60;20.85;;;;;;;;;;5053109;28;20108;-88
2021/09/04 06:39:15;;;;;;;60.53;21.17;;;;;;;;;;5052977;28;20053;-88
2021/09/04 06:41:40;;;;;;;56.47;19.90;;;;;;;;;;5054749;28;20013;-88
2021/09/04 06:44:05;;;;;;;56.65;21.05;;;;;;;;;;5053376;28;20380;-88
2021/09/04 06:46:32;;;;;;;63.20;20.92;;;;;;;;;;5053555;28;20075;-89
2021/09/04 06:48:58;;;;;;;67.65;23.40;;;;;;;;;;5053125;28;20072;-88
2021/09/04 06:51:23;;;;;;;56.08;20.75;;;;;;;;;;5052806;28;20025;-89
2021/09/04 06:53:48;;;;;;;65.88;23.65;;;;;;;;;;5054430;28;20040;-87
2021/09/04 06:56:15;;;;;;;62.70;21.40;;;;;;;;;;5052527;28;20552;-88
2021/09/04 06:58:40;;;;;;;61.67;22.98;;;;;;;;;;5052664;28;20020;-88
2021/09/04 07:01:05;;;;;;;63.58;21.02;;;;;;;;;;5056710;28;20622;-86
2021/09/04 07:03:32;;;;;;;66.85;23.30;;;;;;;;;;5051673;28;20111;-88
2021/09/04 07:05:57;;;;;;;58.50;19.83;;;;;;;;;;5052806;28;20036;-87
2021/09/04 07:08:22;;;;;;;70.07;23.98;;;;;;;;;;5054086;28;20025;-87
2021/09/04 07:10:48;;;;;;;68.93;23.92;;;;;;;;;;5052224;28;20025;-88
2021/09/04 07:13:13;;;;;;;67.13;22.73;;;;;;;;;;5052109;28;20526;-88
2021/09/04 07:15:40;;;;;;;63.05;21.67;;;;;;;;;;5052560;28;20025;-87
2021/09/04 07:18:05;;;;;;;64.40;21.40;;;;;;;;;;5052344;28;20370;-88
2021/09/04 07:20:30;;;;;;;61.80;21.85;;;;;;;;;;5052393;28;20028;-87
2021/09/04 07:22:55;;;;;;;66.93;21.85;;;;;;;;;;5052608;28;20017;-88
2021/09/04 07:25:20;;;;;;;70.90;23.73;;;;;;;;;;5053245;28;20013;-87
2021/09/04 07:27:46;;;;;;;64.20;22.42;;;;;;;;;;5052470;28;20071;-87
2021/09/04 07:33:18;;;;;;;78.60;23.42;;;;;;;;;;5051525;28;20036;-87
2021/09/04 07:35:43;;;;;;;73.20;25.88;;;;;;;;;;5052715;28;20380;-87
2021/09/04 07:38:08;;;;;;;78.15;24.13;;;;;;;;;;5051725;28;20024;-87
2021/09/04 07:40:33;;;;;;;67.13;25.55;;;;;;;;;;5052290;28;20053;-87
2021/09/04 07:42:58;;;;;;;78.22;25.17;;;;;;;;;;5052048;28;20100;-88
2021/09/04 07:45:24;;;;;;;72.38;25.80;;;;;;;;;;5051892;28;20070;-87
2021/09/04 07:47:49;;;;;;;87.88;25.98;;;;;;;;;;5051610;28;20029;-87
2021/09/04 07:50:14;;;;;;;85.15;27.73;;;;;;;;;;5051800;28;20376;-87
2021/09/04 07:52:39;;;;;;;82.13;25.55;;;;;;;;;;5052282;28;20031;-87
2021/09/04 07:55:05;;;;;;;72.72;24.85;;;;;;;;;;5051630;28;20057;-88
2021/09/04 07:57:30;;;;;;;70.63;24.38;;;;;;;;;;5050832;28;20029;-87
2021/09/04 07:59:56;;;;;;;81.25;27.00;;;;;;;;;;5050686;28;20021;-88
2021/09/04 08:02:21;;;;;;;70.75;23.67;;;;;;;;;;5051211;28;20094;-87
2021/09/04 08:04:47;;;;;;;68.22;24.83;;;;;;;;;;5050442;28;20472;-86
2021/09/04 08:07:12;;;;;;;86.28;26.27;;;;;;;;;;5051932;28;20477;-87
2021/09/04 08:09:37;;;;;;;67.80;23.85;;;;;;;;;;5051601;28;20039;-87
2021/09/04 08:12:02;;;;;;;77.25;26.17;;;;;;;;;;5051716;28;20029;-88
2021/09/04 08:14:27;;;;;;;82.97;27.15;;;;;;;;;;5052847;28;20107;-88
2021/09/04 08:16:53;;;;;;;78.13;26.00;;;;;;;;;;5051193;28;20615;-87
2021/09/04 08:19:18;;;;;;;75.13;25.48;;;;;;;;;;5052041;28;20039;-88
2021/09/04 08:21:43;;;;;;;62.22;22.20;;;;;;;;;;5051938;28;20071;-88
2021/09/04 08:24:09;;;;;;;63.30;23.63;;;;;;;;;;5052704;28;20017;-88
2021/09/04 08:26:34;;;;;;;67.22;23.38;;;;;;;;;;5051674;28;20025;-88
2021/09/04 08:28:59;;;;;;;69.50;22.98;;;;;;;;;;5051383;28;20070;-88
2021/09/04 08:31:24;;;;;;;72.35;26.60;;;;;;;;;;5052726;28;20111;-87
2021/09/04 08:33:49;;;;;;;65.00;23.45;;;;;;;;;;5051507;28;20024;-87
2021/09/04 08:36:15;;;;;;;71.63;24.40;;;;;;;;;;5051857;28;20032;-88
2021/09/04 08:38:40;;;;;;;71.50;24.17;;;;;;;;;;5053096;28;20063;-88
2021/09/04 08:41:05;;;;;;;60.28;22.48;;;;;;;;;;5056661;28;20024;-88
2021/09/04 08:43:30;;;;;;;61.97;22.48;;;;;;;;;;5089349;28;20052;-88
2021/09/04 08:45:56;;;;;;;58.42;22.40;;;;;;;;;;5055680;28;20025;-88
2021/09/04 08:48:22;;;;;;;65.28;24.17;;;;;;;;;;5088971;28;20037;-87
2021/09/04 08:50:50;;;;;;;63.80;21.83;;;;;;;;;;5055230;28;20032;-87
2021/09/04 08:53:15;;;;;;;60.97;22.08;;;;;;;;;;5041684;28;20448;-87
2021/09/04 08:55:40;;;;;;;66.20;22.83;;;;;;;;;;5055043;28;20048;-87
2021/09/04 08:58:05;;;;;;;64.75;23.05;;;;;;;;;;5054611;28;20033;-87
2021/09/04 09:00:33;;;;;;;65.00;24.17;;;;;;;;;;5054987;28;20134;-87
2021/09/04 09:02:59;;;;;;;58.90;22.25;;;;;;;;;;5056979;28;20025;-87
2021/09/04 09:05:24;;;;;;;61.67;22.20;;;;;;;;;;5055880;28;20036;-86
2021/09/04 09:07:49;;;;;;;57.55;21.60;;;;;;;;;;5054560;28;20535;-87
2021/09/04 09:10:21;;;;;;;55.25;20.35;;;;;;;;;;5053303;28;20552;-87
2021/09/04 09:12:46;;;;;;;67.57;21.83;;;;;;;;;;5054490;28;20025;-88
2021/09/04 09:15:18;;;;;;;57.13;20.45;;;;;;;;;;5054952;28;20028;-89
2021/09/04 09:17:55;;;;;;;60.33;22.50;;;;;;;;;;5055156;28;20025;-87
2021/09/04 09:20:22;;;;;;;62.50;21.52;;;;;;;;;;5056664;28;20504;-88
2021/09/04 09:22:48;;;;;;;58.72;23.15;;;;;;;;;;5054686;28;20028;-88
2021/09/04 09:25:14;;;;;;;60.20;23.27;;;;;;;;;;5054382;28;20024;-86
2021/09/04 09:27:55;;;;;;;63.20;24.73;;;;;;;;;;5053210;28;20021;-88
2021/09/04 09:30:28;;;;;;;61.13;22.42;;;;;;;;;;5054607;28;20039;-88
2021/09/04 09:32:54;;;;;;;61.20;23.00;;;;;;;;;;5055419;28;20692;-88
2021/09/04 09:35:28;;;;;;;63.47;23.25;;;;;;;;;;5050074;28;20024;-85
2021/09/04 09:37:53;;;;;;;61.17;22.92;;;;;;;;;;5052559;28;20021;-88
2021/09/04 09:40:25;;;;;;;54.63;21.75;;;;;;;;;;5051500;28;20016;-87
2021/09/04 09:42:50;;;;;;;64.90;23.45;;;;;;;;;;5052339;28;20022;-87
2021/09/04 09:45:15;;;;;;;62.88;23.60;;;;;;;;;;5054996;28;20025;-87
2021/09/04 09:47:53;;;;;;;60.10;22.95;;;;;;;;;;5053856;28;20023;-88
2021/09/04 09:50:18;;;;;;;55.97;21.27;;;;;;;;;;5084480;28;20542;-88
2021/09/04 09:52:47;;;;;;;53.22;20.02;;;;;;;;;;5056261;28;20025;-88
2021/09/04 09:55:12;;;;;;;53.85;20.48;;;;;;;;;;5053662;28;20456;-87
2021/09/04 09:57:39;;;;;;;55.15;19.58;;;;;;;;;;5082043;28;20032;-88
2021/09/04 10:00:04;;;;;;;55.25;20.85;;;;;;;;;;5055048;28;20095;-88
2021/09/04 10:02:30;;;;;;;61.80;23.23;;;;;;;;;;5055628;28;20107;-88
2021/09/04 10:04:55;;;;;;;54.42;20.30;;;;;;;;;;5060639;28;20021;-87
2021/09/04 10:07:21;;;;;;;55.60;22.30;;;;;;;;;;5053701;28;20396;-88
2021/09/04 10:09:47;;;;;;;56.17;21.50;;;;;;;;;;5054871;28;20055;-88
2021/09/04 10:12:12;;;;;;;51.45;21.48;;;;;;;;;;5065713;28;20048;-87
2021/09/04 10:14:38;;;;;;;53.55;20.50;;;;;;;;;;5053963;28;20024;-88
2021/09/04 10:17:04;;;;;;;55.47;20.63;;;;;;;;;;5057067;28;20020;-88
2021/09/04 10:19:30;;;;;;;51.97;19.83;;;;;;;;;;5054734;28;20365;-88
2021/09/04 10:22:00;;;;;;;56.38;22.08;;;;;;;;;;5053193;28;20112;-87
2021/09/04 10:24:43;;;;;;;56.38;22.88;;;;;;;;;;5053612;28;20032;-88
2021/09/04 10:27:12;;;;;;;48.83;20.45;;;;;;;;;;5053143;28;20051;-87
2021/09/04 10:29:44;;;;;;;51.65;20.33;;;;;;;;;;5052542;28;20025;-87
2021/09/04 10:32:17;;;;;;;46.58;19.52;;;;;;;;;;5052907;28;20025;-87
2021/09/04 10:34:44;;;;;;;52.40;20.90;;;;;;;;;;5054628;28;20029;-87
2021/09/04 10:37:13;;;;;;;49.92;19.25;;;;;;;;;;5052663;28;20496;-87
2021/09/04 10:39:52;;;;;;;45.85;20.17;;;;;;;;;;5053114;28;20142;-87
2021/09/04 10:42:17;;;;;;;47.20;18.42;;;;;;;;;;5051595;28;20051;-87
2021/09/04 10:44:44;;;;;;;47.15;20.52;;;;;;;;;;5052796;28;20021;-87
2021/09/04 10:47:10;;;;;;;50.88;20.23;;;;;;;;;;5052970;28;20443;-87
2021/09/04 10:49:47;;;;;;;52.28;21.60;;;;;;;;;;5052818;28;20029;-87
2021/09/04 10:52:12;;;;;;;49.55;20.58;;;;;;;;;;5052863;28;20024;-87
2021/09/04 10:54:57;;;;;;;53.67;20.33;;;;;;;;;;5052148;28;20100;-87
2021/09/04 10:57:22;;;;;;;53.47;21.42;;;;;;;;;;5062449;28;20025;-85
2021/09/04 11:00:08;;;;;;;52.85;21.40;;;;;;;;;;5053111;28;20388;-87
2021/09/04 11:02:40;;;;;;;45.83;20.67;;;;;;;;;;5041872;28;20025;-86
2021/09/04 11:05:24;;;;;;;47.22;20.52;;;;;;;;;;5052423;28;20025;-86
2021/09/04 11:07:59;;;;;;;49.47;22.02;;;;;;;;;;5053603;28;20100;-86
2021/09/04 11:10:24;;;;;;;49.30;22.02;;;;;;;;;;5051753;28;20079;-87
2021/09/04 11:13:13;;;;;;;56.45;21.73;;;;;;;;;;5032846;28;20029;-87
2021/09/04 11:15:39;;;;;;;46.88;19.50;;;;;;;;;;5033518;28;20435;-87
2021/09/04 11:18:04;;;;;;;49.47;20.48;;;;;;;;;;5052082;28;20029;-87
2021/09/04 11:20:29;;;;;;;52.45;21.23;;;;;;;;;;5053147;28;20167;-87
2021/09/04 11:22:55;;;;;;;47.85;19.27;;;;;;;;;;5053946;28;20051;-86
2021/09/04 11:25:21;;;;;;;45.55;18.42;;;;;;;;;;5052178;28;20021;-87
2021/09/04 11:27:46;;;;;;;50.47;20.90;;;;;;;;;;5052364;28;20017;-87
2021/09/04 11:30:18;;;;;;;47.15;19.70;;;;;;;;;;5051320;28;20029;-88
2021/09/04 11:32:43;;;;;;;;;;;;;;;;;;5052698;28;20403;-87
2021/09/04 11:35:10;;;;;;;47.28;19.33;;;;;;;;;;5052026;28;20352;-87
2021/09/04 11:37:36;;;;;;;51.38;20.60;;;;;;;;;;5051782;28;20009;-86
2021/09/04 11:40:08;;;;;;;48.95;21.35;;;;;;;;;;5077419;28;20017;-87
2021/09/04 11:42:36;;;;;;;50.65;20.88;;;;;;;;;;5048167;28;20105;-87
2021/09/04 11:45:06;;;;;;;47.03;20.77;;;;;;;;;;5051141;28;20017;-88
2021/09/04 11:47:33;;;;;;;55.00;23.83;;;;;;;;;;5058050;28;20025;-87
2021/09/04 11:50:00;;;;;;;55.80;22.90;;;;;;;;;;5066938;28;20032;-87
2021/09/04 11:52:29;;;;;;;47.83;20.02;;;;;;;;;;5051514;28;20029;-86
2021/09/04 11:55:10;;;;;;;56.92;22.90;;;;;;;;;;5051265;28;20387;-87
2021/09/04 11:57:36;;;;;;;51.47;20.98;;;;;;;;;;5075117;28;20039;-87
2021/09/04 12:00:04;;;;;;;54.28;19.90;;;;;;;;;;5049271;28;20368;-86
2021/09/04 12:02:29;;;;;;;45.58;19.60;;;;;;;;;;5057051;28;20029;-87
2021/09/04 12:04:55;;;;;;;53.42;22.85;;;;;;;;;;5076514;28;20025;-86
2021/09/04 12:07:26;;;;;;;47.15;21.00;;;;;;;;;;5051083;28;20060;-86
2021/09/04 12:09:52;;;;;;;41.65;19.08;;;;;;;;;;5059484;28;20036;-87
2021/09/04 12:12:18;;;;;;;40.72;17.90;;;;;;;;;;5051711;28;20025;-87
2021/09/04 12:14:43;;;;;;;40.92;17.85;;;;;;;;;;5051574;28;20027;-87
2021/09/04 12:17:08;;;;;;;42.60;17.52;;;;;;;;;;5051736;28;20090;-85
2021/09/04 12:19:37;;;;;;;41.13;18.42;;;;;;;;;;5046088;28;20427;-87
2021/09/04 12:22:02;;;;;;;45.05;19.00;;;;;;;;;;5045662;28;20021;-87
2021/09/04 12:24:31;;;;;;;48.28;20.75;;;;;;;;;;5050738;28;20040;-86
2021/09/04 12:26:57;;;;;;;41.90;19.50;;;;;;;;;;5051570;28;20039;-87
2021/09/04 12:29:26;;;;;;;44.65;17.98;;;;;;;;;;5050140;28;20024;-86
2021/09/04 12:31:51;;;;;;;44.20;18.77;;;;;;;;;;5050492;28;20029;-87
2021/09/04 12:34:23;;;;;;;46.88;20.40;;;;;;;;;;5050534;28;20488;-87
2021/09/04 12:36:49;;;;;;;40.80;18.42;;;;;;;;;;5049970;28;20031;-87
2021/09/04 12:39:22;;;;;;;47.47;19.95;;;;;;;;;;5048031;28;20025;-87
2021/09/04 12:41:47;;;;;;;42.20;18.30;;;;;;;;;;5045631;28;20017;-87
2021/09/04 12:44:14;;;;;;;36.38;18.27;;;;;;;;;;5047153;28;20067;-87
2021/09/04 12:46:42;;;;;;;38.70;16.63;;;;;;;;;;5043434;28;20044;-87
2021/09/04 12:49:17;;;;;;;39.03;18.77;;;;;;;;;;5039597;28;20035;-86
2021/09/04 12:51:43;;;;;;;43.15;19.42;;;;;;;;;;5059004;28;20036;-87
2021/09/04 12:54:08;;;;;;;45.42;18.50;;;;;;;;;;5045261;28;20021;-87
2021/09/04 12:56:35;;;;;;;46.60;21.05;;;;;;;;;;5047902;28;20059;-87
2021/09/04 12:59:01;;;;;;;46.40;19.75;;;;;;;;;;5047097;28;20017;-87
2021/09/04 13:01:26;;;;;;;47.17;19.48;;;;;;;;;;5047563;28;20017;-87
2021/09/04 13:03:52;;;;;;;45.05;21.40;;;;;;;;;;5048776;28;20017;-86
2021/09/04 13:06:17;;;;;;;38.67;17.35;;;;;;;;;;5051760;28;20017;-87
2021/09/04 13:08:42;;;;;;;48.97;21.23;;;;;;;;;;5050717;28;20020;-87
2021/09/04 13:11:07;;;;;;;47.95;19.80;;;;;;;;;;5049263;28;20021;-87
2021/09/04 13:13:33;;;;;;;41.88;18.80;;;;;;;;;;5051231;28;20044;-87
2021/09/04 13:15:58;;;;;;;44.60;19.23;;;;;;;;;;5050378;28;20017;-87
2021/09/04 13:18:23;;;;;;;48.65;19.90;;;;;;;;;;5050982;28;20539;-88
2021/09/04 13:20:48;;;;;;;44.38;19.83;;;;;;;;;;5050644;28;20028;-87
2021/09/04 13:23:14;;;;;;;43.92;19.73;;;;;;;;;;5050202;28;20025;-88
2021/09/04 13:25:39;;;;;;;44.53;20.30;;;;;;;;;;5052909;28;20024;-87
2021/09/04 13:28:04;;;;;;;37.88;18.27;;;;;;;;;;5053912;28;20013;-87
2021/09/04 13:30:30;;;;;;;49.55;20.15;;;;;;;;;;5053936;28;20120;-87
2021/09/04 13:32:58;;;;;;;49.25;20.77;;;;;;;;;;5055296;28;20024;-87
2021/09/04 13:35:23;;;;;;;45.92;20.77;;;;;;;;;;5050521;28;20480;-87
2021/09/04 13:37:48;;;;;;;44.50;18.15;;;;;;;;;;5055953;28;20076;-87
2021/09/04 13:40:13;;;;;;;44.15;18.60;;;;;;;;;;5081448;28;20022;-87
2021/09/04 13:42:38;;;;;;;46.70;20.52;;;;;;;;;;5051117;28;20079;-87
2021/09/04 13:45:04;;;;;;;40.33;18.45;;;;;;;;;;5053735;28;20381;-84
2021/09/04 13:47:32;;;;;;;43.20;19.50;;;;;;;;;;5052946;28;20028;-83
2021/09/04 13:49:57;;;;;;;43.00;19.45;;;;;;;;;;5052994;28;20049;-84
2021/09/04 13:52:23;;;;;;;49.70;20.98;;;;;;;;;;5054902;28;20037;-84
2021/09/04 13:54:48;;;;;;;48.20;19.70;;;;;;;;;;5053170;28;20530;-83
2021/09/04 13:57:13;;;;;;;40.03;19.17;;;;;;;;;;5055230;28;20387;-83
2021/09/04 13:59:38;;;;;;;47.75;20.70;;;;;;;;;;5054140;28;20447;-83
2021/09/04 14:02:03;;;;;;;48.42;21.27;;;;;;;;;;5054025;28;20477;-83
2021/09/04 14:04:29;;;;;;;46.08;17.98;;;;;;;;;;5053895;28;20028;-84
2021/09/04 14:06:54;;;;;;;42.20;18.48;;;;;;;;;;5053819;28;20384;-83
2021/09/04 14:09:19;;;;;;;37.20;17.73;;;;;;;;;;5053827;28;20020;-83
2021/09/04 14:11:44;;;;;;;39.47;18.63;;;;;;;;;;5086199;28;20032;-83
2021/09/04 14:14:09;;;;;;;48.42;19.83;;;;;;;;;;5055197;28;20023;-83
2021/09/04 14:16:35;;;;;;;43.33;19.73;;;;;;;;;;5054894;28;20029;-84